Pagrindinis puslapis
METAR-TAF:

METAR-TAF

Oro uostai :

Kororas, Babeltuapas, Palau

platuma: 07-22N, ilguma: 134-32E, Aukštis: 54 m

Dabartinis oras

Ataskaita buvo paskelbta 39 minutes, ne 04:50 UTC
Vėjas 10 kt iš Šiaurės Rytų su gūsio iki 17 kt
Temperatūra 30°C
Drėgmė 70%
Slėgis 1009 hPa
Matomumas: 24.1 km
Išsisklaidę debesys ne aukštis 1700 ft, Liūtiniai kamuoliniai debesys.
Išsisklaidę debesys ne aukštis 12000 ft
Su prošvaistėmis ne aukštis 30000 ft

METAR: PTRO 120450Z 05010G17KT 15SM SCT017CB SCT120 BKN300 30/24 A2979 RMK CB SE AND W-N

Laikas: 14:29 (05:29 UTC)

Prognozė

Ataskaita buvo paskelbta 5 valandos ir 57 minutes, ne 23:32 UTC
Prognozė galioja nuo 12 metu 00 UTC su 12 metu 24 UTC
Vėjas 11 kt iš Rytų/Šiaurės Rytų
Matomumas: 10 km
Išsisklaidę debesys ne aukštis 1600 ft
Išsisklaidę debesys ne aukštis 5000 ft

TAF: PTRO 112332Z 1200/1224 07011KT P6SM SCT016 SCT050

Orai ataskaitas ir orų prognozės (METAR, TAF).

turimą stotys yra geltonos ir raudonos taškus žemėlapyje.

Perkelti pele per norėdami pamatyti stoties vardą.

Tada spustelėkite, norėdami matyti oro stebėjimo ir prognozės.

Norėdami pakeisti žemėlapį: spustelėkite ant žalios mygtukų su juodo kryžiaus žemyn,; žalią mygtuką su brūkšneliu, jei norite nutolinti; arba žalių rodyklių gretimoms žemėlapius.


METAR-TAF: